Webcam Meteoipassi more information Webcam Meteoipassi


Pisa torre orologio more information Pisa torre orologio


avvertimento per Temporali more information blitzortung!


avvertimento per Pioggia more information rain snow radar


altri nostri siti meteo:

Pomeziameteo 1Sito sul meteo

Pomeziameteo DashboardSito sul meteo

Caput FrigorisSito sul meteo

BarcellonameteoSito sul meteo

MeteoipassiSito sul meteo

ViterbometeoSito sul meteo

MeteotortoretoSito sul meteo

TortoretometeolidoSito sul meteo

MeteoGonzagaSito sul meteo



Vento Inizio validita dal: 23-11-2019 02:00 Fino: 23:59 Allerta per: Vento Livello: Arancione info button
Temporali Inizio validita dal: 23-11-2019 02:00 Fino: 23:59 Allerta per: Temporali Livello: Giallo info button
Pioggia Inizio validita dal: 23-11-2019 02:00 Fino: 23:59 Allerta per: Pioggia Livello: Giallo info button

Report METAR

   
LIRQ - Firenze
Dati ricevuti: Nov 23 2019 2:20 am
Molto nuvoloso  
Molto nuvoloso  
   Vento: Oriente 13 km/h
Vento: Oriente 13 km/h
Temperatura: 13°C
P.to Rugiada: 10°C
Umidita: 82%
Barometro: 1010 hPa
Nuvole: Molto nuvoloso
Visibilita: 8 km
dettagli cloud: Molto nuvoloso 1828.8 m
LIRQ 230120Z 10007KT 8000 BKN060 13/10 Q1010
LIRP - Lucca
Dati ricevuti: Nov 23 2019 2:15 am
Molto nuvoloso  
Molto nuvoloso  
   Vento: Oriente 22.2 km/h
Vento: Oriente 22.2 km/h
Temperatura: 13°C
P.to Rugiada: 12°C
Umidita: 94%
Barometro: 1008 hPa
Nuvole: Molto nuvoloso
Visibilita: oltre 10 km
dettagli cloud: Molto nuvoloso 2133.6 m
LIRP 230115Z 10012KT 9999 BKN070 13/12 Q1008 NOSIG
LIRP - Livorno
Dati ricevuti: Nov 23 2019 2:15 am
Molto nuvoloso  
Molto nuvoloso  
   Vento: Oriente 22.2 km/h
Vento: Oriente 22.2 km/h
Temperatura: 13°C
P.to Rugiada: 12°C
Umidita: 94%
Barometro: 1008 hPa
Nuvole: Molto nuvoloso
Visibilita: oltre 10 km
dettagli cloud: Molto nuvoloso 2133.6 m
LIRP 230115Z 10012KT 9999 BKN070 13/12 Q1008 NOSIG
LIMP - Parma
Dati ricevuti: Nov 22 2019 10:50 pm
DATI Obsoleti
Nebbia, Molto nuvoloso  
Nebbia, Molto nuvoloso  
   Vento: Oriente 13 km/h
Vento: Oriente 13 km/h
Temperatura: 11°C
P.to Rugiada: 11°C
Umidita: 100%
Barometro: 1011 hPa
Nuvole: Molto nuvoloso
Visibilita: 3 km
dettagli cloud: Molto nuvoloso 914.4 m
LIMP 222150Z 09007KT 3000 BR BKN030 11/11 Q1011
LIRF - Roma
Dati ricevuti: Nov 23 2019 2:20 am
Sereno  
Sereno  
   Vento: SE 25.9 km/h
Vento: SE 25.9 km/h
Temperatura: 14°C
P.to Rugiada: 11°C
Umidita: 82%
Barometro: 1010 hPa
Visibilita: oltre 10 km
dettagli cloud: Sereno
LIRF 230120Z 13014KT CAVOK 14/11 Q1010 NOSIG
 

Script sviluppato da  Saratoga-weather.org Adattato per il modello da  Weerstation Leuven

Potete trovare le nostre info meteo anche a:

European Weather Network

Weather Underground

AWEKAS

HAMweather, WeatherForYou, PWS Weather

Strumentazione usata:

Stazione meteo
Oregon Scientific WMR88

Programma gestore dati meteo
WVIEW

Server per i dati meteo
WDS-5

Provider
Anemos WDS-5

Oregon Scientific WMR88

WVIEW

WDS-5

Anemos WDS-5